createdAt,value
2018-11-07T00:00:19.059Z,23.92
2018-11-07T00:00:52.555Z,23.73
2018-11-07T00:01:25.241Z,24.75
2018-11-07T00:01:58.009Z,24.47
2018-11-07T00:02:30.676Z,23.42
2018-11-07T00:03:03.409Z,23.73
2018-11-07T00:03:36.075Z,24.12
2018-11-07T00:04:08.751Z,23.90
2018-11-07T00:04:41.437Z,24.20
2018-11-07T00:05:15.393Z,23.80
2018-11-07T00:05:48.117Z,23.62
2018-11-07T00:06:20.801Z,24.40
2018-11-07T00:06:53.487Z,24.15
2018-11-07T00:07:26.169Z,23.20
2018-11-07T00:09:01.615Z,24.55
2018-11-07T00:09:34.303Z,23.70
2018-11-07T00:10:07.661Z,24.65
2018-11-07T00:10:40.362Z,23.62
2018-11-07T00:11:13.035Z,24.15
2018-11-07T00:11:45.705Z,26.95
2018-11-07T00:12:18.337Z,23.77
2018-11-07T00:12:50.979Z,25.17
2018-11-07T00:13:23.677Z,25.10
2018-11-07T00:13:56.331Z,25.15
2018-11-07T00:14:29.005Z,24.90
2018-11-07T00:15:01.826Z,24.02
2018-11-07T00:15:34.485Z,24.27
2018-11-07T00:16:07.211Z,25.10
2018-11-07T00:16:39.870Z,24.95
2018-11-07T00:17:12.593Z,24.20
2018-11-07T00:17:45.289Z,27.17
2018-11-07T00:18:17.953Z,25.68
2018-11-07T00:18:50.607Z,24.40
2018-11-07T00:19:23.302Z,24.37
2018-11-07T00:19:55.941Z,24.87
2018-11-07T00:20:28.598Z,24.98
2018-11-07T00:21:01.253Z,24.82
2018-11-07T00:21:33.907Z,26.30
2018-11-07T00:22:06.817Z,24.55
2018-11-07T00:22:39.670Z,24.60
2018-11-07T00:23:12.371Z,24.43
2018-11-07T00:23:45.013Z,24.27
2018-11-07T00:24:17.681Z,24.75
2018-11-07T00:24:50.322Z,24.63
2018-11-07T00:25:23.019Z,25.00
2018-11-07T00:25:55.665Z,24.52
2018-11-07T00:26:28.383Z,24.47
2018-11-07T00:27:01.025Z,24.50
2018-11-07T00:27:33.721Z,23.77
2018-11-07T00:28:06.491Z,25.68
2018-11-07T00:28:39.179Z,24.70
2018-11-07T00:29:11.855Z,24.60
2018-11-07T00:29:44.534Z,23.92
2018-11-07T00:30:17.202Z,24.60
2018-11-07T00:30:49.852Z,23.02
2018-11-07T00:31:22.473Z,24.12
2018-11-07T00:31:55.171Z,24.57
2018-11-07T00:32:27.849Z,24.23
2018-11-07T00:33:00.509Z,26.10
2018-11-07T00:33:33.174Z,24.30
2018-11-07T00:34:05.831Z,24.52
2018-11-07T00:34:38.479Z,24.85
2018-11-07T00:35:11.717Z,24.27
2018-11-07T00:35:44.265Z,24.45
2018-11-07T00:36:16.943Z,23.62
2018-11-07T00:36:49.617Z,23.73
2018-11-07T00:37:22.328Z,24.20
2018-11-07T00:37:55.019Z,24.25
2018-11-07T00:38:27.683Z,24.32
2018-11-07T00:39:00.564Z,23.57
2018-11-07T00:39:33.223Z,24.20
2018-11-07T00:40:05.919Z,23.83
2018-11-07T00:40:38.587Z,23.85
2018-11-07T00:41:11.239Z,23.87
2018-11-07T00:41:44.011Z,24.18
2018-11-07T00:42:16.694Z,24.63
2018-11-07T00:42:49.371Z,23.75
2018-11-07T00:43:22.035Z,24.67
2018-11-07T00:43:54.692Z,23.38
2018-11-07T00:44:27.355Z,24.52
2018-11-07T00:45:00.020Z,24.15
2018-11-07T00:45:32.704Z,24.05
2018-11-07T00:46:05.407Z,24.37
2018-11-07T00:46:38.079Z,24.25
2018-11-07T00:47:10.839Z,23.92
2018-11-07T00:47:43.573Z,24.30
2018-11-07T00:48:16.219Z,23.65
2018-11-07T00:48:48.896Z,22.93
2018-11-07T00:49:21.547Z,24.70
2018-11-07T00:49:54.199Z,24.02
2018-11-07T00:50:26.850Z,24.52
2018-11-07T00:50:59.595Z,23.55
2018-11-07T00:51:32.246Z,23.22
2018-11-07T00:52:05.095Z,23.87
2018-11-07T00:52:37.760Z,24.40
2018-11-07T00:53:10.419Z,23.70
2018-11-07T00:53:43.095Z,23.45
2018-11-07T00:54:15.759Z,23.50
2018-11-07T00:54:48.405Z,24.07
2018-11-07T00:55:21.080Z,23.15
2018-11-07T00:55:53.729Z,23.38
2018-11-07T00:56:26.393Z,22.82
2018-11-07T00:56:59.042Z,22.98
2018-11-07T00:57:31.707Z,23.25
2018-11-07T00:58:04.766Z,23.80
2018-11-07T00:58:37.375Z,23.47
2018-11-07T00:59:10.047Z,23.20
2018-11-07T00:59:42.747Z,23.70
2018-11-07T01:00:19.461Z,22.65
2018-11-07T01:00:52.145Z,23.45
2018-11-07T01:01:24.790Z,23.40
2018-11-07T01:01:57.429Z,23.45
2018-11-07T01:02:30.131Z,23.05
2018-11-07T01:03:02.779Z,23.10
2018-11-07T01:03:35.443Z,22.90
2018-11-07T01:04:08.107Z,23.40
2018-11-07T01:04:40.807Z,22.80
2018-11-07T01:05:13.750Z,23.75
2018-11-07T01:05:46.399Z,23.30
2018-11-07T01:06:19.078Z,23.32
2018-11-07T01:06:51.751Z,23.42
2018-11-07T01:07:24.427Z,24.32
2018-11-07T01:07:57.103Z,23.95
2018-11-07T01:08:29.778Z,23.40
2018-11-07T01:09:02.588Z,22.60
2018-11-07T01:09:35.352Z,22.35
2018-11-07T01:10:08.475Z,23.12
2018-11-07T01:10:41.152Z,23.12
2018-11-07T01:11:13.823Z,23.25
2018-11-07T01:11:46.455Z,22.75
2018-11-07T01:12:19.120Z,23.73
2018-11-07T01:12:51.784Z,22.70
2018-11-07T01:13:24.503Z,23.60
2018-11-07T01:13:57.179Z,22.75
2018-11-07T01:14:29.883Z,23.05
2018-11-07T01:15:02.876Z,22.50
2018-11-07T01:15:35.562Z,23.00
2018-11-07T01:16:08.239Z,23.12
2018-11-07T01:16:40.921Z,22.67
2018-11-07T01:17:13.594Z,22.95
2018-11-07T01:17:46.249Z,22.22
2018-11-07T01:18:18.906Z,22.20
2018-11-07T01:18:51.578Z,22.35
2018-11-07T01:19:24.243Z,22.55
2018-11-07T01:19:56.890Z,22.80
2018-11-07T01:20:29.555Z,22.37
2018-11-07T01:21:02.226Z,22.52
2018-11-07T01:21:34.946Z,21.82
2018-11-07T01:22:07.634Z,21.85
2018-11-07T01:22:40.312Z,21.70
2018-11-07T01:23:12.980Z,21.27
2018-11-07T01:23:45.715Z,21.35
2018-11-07T01:24:18.387Z,22.62
2018-11-07T01:24:51.042Z,22.15
2018-11-07T01:25:23.744Z,21.35
2018-11-07T01:25:56.407Z,20.72
2018-11-07T01:26:29.079Z,21.35
2018-11-07T01:27:01.770Z,21.73
2018-11-07T01:27:34.604Z,21.23
2018-11-07T01:28:07.307Z,21.33
2018-11-07T01:28:39.926Z,20.35
2018-11-07T01:29:12.580Z,21.10
2018-11-07T01:29:45.244Z,21.15
2018-11-07T01:30:17.912Z,20.95
2018-11-07T01:30:50.604Z,20.57
2018-11-07T01:31:23.259Z,20.30
2018-11-07T01:31:55.936Z,20.62
2018-11-07T01:32:28.580Z,20.90
2018-11-07T01:33:01.263Z,21.23
2018-11-07T01:33:33.927Z,20.32
2018-11-07T01:34:06.616Z,20.95
2018-11-07T01:34:39.288Z,20.10
2018-11-07T01:35:11.979Z,20.80
2018-11-07T01:35:44.623Z,20.30
2018-11-07T01:36:17.282Z,20.02
2018-11-07T01:36:49.961Z,19.73
2018-11-07T01:37:22.647Z,20.82
2018-11-07T01:37:55.296Z,20.12
2018-11-07T01:38:27.998Z,20.02
2018-11-07T01:39:00.649Z,20.30
2018-11-07T01:39:33.334Z,19.95
2018-11-07T01:40:12.677Z,20.05
2018-11-07T01:40:45.328Z,19.85
2018-11-07T01:41:17.972Z,19.95
2018-11-07T01:41:50.738Z,20.25
2018-11-07T01:42:23.376Z,19.92
2018-11-07T01:42:56.038Z,19.73
2018-11-07T01:43:28.719Z,19.48
2018-11-07T01:44:01.416Z,19.70
2018-11-07T01:44:34.072Z,19.55
2018-11-07T01:45:07.889Z,19.20
2018-11-07T01:45:40.578Z,19.95
2018-11-07T01:46:13.238Z,19.20
2018-11-07T01:46:45.934Z,19.40
2018-11-07T01:47:18.604Z,20.57
2018-11-07T01:47:51.280Z,19.87
2018-11-07T01:48:23.933Z,19.10
2018-11-07T01:48:56.614Z,19.67
2018-11-07T01:49:29.300Z,20.12
2018-11-07T01:50:02.001Z,19.77
2018-11-07T01:50:34.669Z,19.90
2018-11-07T01:51:07.458Z,19.42
2018-11-07T01:51:40.101Z,20.10
2018-11-07T01:52:12.769Z,19.48
2018-11-07T01:52:45.458Z,20.23
2018-11-07T01:53:18.122Z,18.80
2018-11-07T01:53:50.790Z,19.60
2018-11-07T01:54:23.763Z,20.30
2018-11-07T01:54:56.434Z,20.32
2018-11-07T01:55:29.128Z,20.27
2018-11-07T01:56:01.793Z,19.73
2018-11-07T01:56:34.476Z,19.73
2018-11-07T01:57:07.148Z,18.92
2018-11-07T01:57:39.911Z,19.87
2018-11-07T01:58:12.624Z,19.35
2018-11-07T01:58:45.334Z,19.25
2018-11-07T01:59:18.020Z,19.37
2018-11-07T01:59:50.686Z,19.52
2018-11-07T02:00:23.352Z,19.27
2018-11-07T02:00:56.028Z,20.17
2018-11-07T02:01:28.686Z,19.30
2018-11-07T02:02:01.388Z,19.82
2018-11-07T02:02:34.054Z,19.85
2018-11-07T02:03:06.766Z,19.65
2018-11-07T02:03:39.540Z,19.10
2018-11-07T02:04:12.241Z,19.87
2018-11-07T02:04:44.914Z,19.55
2018-11-07T02:05:17.592Z,19.52
2018-11-07T02:05:50.275Z,19.82
2018-11-07T02:06:23.010Z,19.42
2018-11-07T02:06:55.674Z,19.07
2018-11-07T02:07:28.346Z,18.73
2018-11-07T02:08:01.000Z,18.90
2018-11-07T02:08:33.646Z,18.98
2018-11-07T02:09:07.504Z,19.30
2018-11-07T02:09:40.176Z,19.35
2018-11-07T02:10:12.858Z,19.67
2018-11-07T02:10:45.506Z,19.30
2018-11-07T02:11:18.194Z,19.85
2018-11-07T02:11:50.869Z,20.02
2018-11-07T02:12:23.550Z,19.00
2018-11-07T02:12:56.224Z,19.73
2018-11-07T02:13:28.898Z,19.00
2018-11-07T02:14:01.570Z,19.48
2018-11-07T02:14:34.206Z,19.12
2018-11-07T02:15:07.178Z,19.98
2018-11-07T02:15:39.836Z,19.65
2018-11-07T02:16:12.507Z,19.82
2018-11-07T02:16:45.160Z,20.62
2018-11-07T02:17:17.858Z,19.55
2018-11-07T02:17:50.554Z,19.95
2018-11-07T02:18:23.244Z,20.00
2018-11-07T02:18:55.914Z,19.80
2018-11-07T02:19:28.630Z,19.60
2018-11-07T02:20:01.278Z,20.35
2018-11-07T02:20:33.934Z,19.92
2018-11-07T02:21:06.598Z,19.10
2018-11-07T02:21:39.264Z,19.87
2018-11-07T02:22:11.950Z,19.07
2018-11-07T02:22:44.630Z,19.10
2018-11-07T02:23:17.306Z,19.92
2018-11-07T02:23:49.975Z,19.90
2018-11-07T02:24:22.672Z,19.75
2018-11-07T02:24:55.346Z,19.75
2018-11-07T02:25:28.052Z,19.32
2018-11-07T02:26:00.716Z,19.95
2018-11-07T02:26:33.470Z,19.62
2018-11-07T02:27:06.046Z,19.10
2018-11-07T02:27:39.276Z,19.27
2018-11-07T02:28:11.956Z,19.77
2018-11-07T02:28:44.597Z,19.05
2018-11-07T02:29:17.260Z,19.20
2018-11-07T02:29:49.911Z,19.70
2018-11-07T02:30:22.598Z,18.70
2018-11-07T02:30:55.342Z,18.98
2018-11-07T02:31:28.033Z,18.62
2018-11-07T02:32:00.674Z,19.48
2018-11-07T02:32:33.348Z,19.60
2018-11-07T02:33:06.202Z,19.05
2018-11-07T02:33:38.851Z,19.52
2018-11-07T02:34:11.708Z,18.65
2018-11-07T02:34:44.366Z,19.00
2018-11-07T02:35:17.065Z,18.90
2018-11-07T02:35:49.765Z,19.37
2018-11-07T02:36:22.414Z,18.50
2018-11-07T02:36:55.133Z,19.32
2018-11-07T02:37:27.781Z,18.73
2018-11-07T02:38:00.455Z,18.65
2018-11-07T02:38:33.141Z,18.37
2018-11-07T02:39:08.366Z,18.50
2018-11-07T02:39:41.025Z,18.77
2018-11-07T02:40:13.759Z,19.02
2018-11-07T02:40:46.442Z,18.57
2018-11-07T02:41:19.114Z,19.67
2018-11-07T02:41:51.789Z,18.35
2018-11-07T02:42:24.467Z,18.77
2018-11-07T02:42:57.097Z,18.20
2018-11-07T02:43:29.769Z,19.02
2018-11-07T02:44:02.410Z,18.90
2018-11-07T02:44:35.071Z,18.67
2018-11-07T02:45:07.750Z,18.48
2018-11-07T02:45:40.438Z,18.60
2018-11-07T02:46:13.095Z,19.40
2018-11-07T02:46:45.780Z,19.27
2018-11-07T02:47:18.451Z,18.45
2018-11-07T02:47:51.151Z,18.30
2018-11-07T02:48:23.840Z,18.77
2018-11-07T02:48:56.519Z,18.20
2018-11-07T02:49:29.195Z,18.35
2018-11-07T02:50:01.914Z,18.92
2018-11-07T02:50:34.562Z,18.85
2018-11-07T02:51:07.240Z,18.60
2018-11-07T02:51:39.880Z,18.25
2018-11-07T02:52:12.541Z,18.05
2018-11-07T02:52:45.208Z,18.67
2018-11-07T02:53:17.857Z,18.27
2018-11-07T02:53:50.545Z,18.65
2018-11-07T02:54:23.195Z,18.37
2018-11-07T02:54:55.883Z,18.32
2018-11-07T02:55:28.542Z,18.65
2018-11-07T02:56:01.211Z,18.70
2018-11-07T02:56:33.888Z,18.75
2018-11-07T02:57:06.557Z,18.60
2018-11-07T02:57:39.205Z,18.45
2018-11-07T02:58:11.859Z,18.48
2018-11-07T02:58:44.543Z,18.17
2018-11-07T02:59:17.220Z,18.57
2018-11-07T02:59:49.866Z,18.48
2018-11-07T03:00:22.534Z,18.50
2018-11-07T03:00:55.202Z,18.40
2018-11-07T03:01:28.589Z,18.30
2018-11-07T03:02:01.249Z,18.62
2018-11-07T03:02:33.912Z,18.32
2018-11-07T03:03:06.590Z,18.70
2018-11-07T03:03:39.237Z,18.60
2018-11-07T03:04:11.991Z,18.23
2018-11-07T03:04:44.656Z,18.10
2018-11-07T03:05:17.325Z,19.10
2018-11-07T03:05:50.005Z,18.42
2018-11-07T03:06:22.674Z,18.42
2018-11-07T03:06:55.344Z,18.20
2018-11-07T03:07:27.993Z,18.57
2018-11-07T03:08:00.652Z,18.57
2018-11-07T03:08:33.305Z,18.42
2018-11-07T03:09:07.717Z,18.30
2018-11-07T03:09:40.378Z,18.45
2018-11-07T03:10:13.137Z,17.92
2018-11-07T03:10:45.868Z,18.23
2018-11-07T03:11:18.512Z,18.50
2018-11-07T03:11:51.182Z,17.87
2018-11-07T03:12:23.941Z,18.42
2018-11-07T03:12:56.593Z,18.17
2018-11-07T03:13:29.272Z,18.30
2018-11-07T03:14:01.911Z,18.27
2018-11-07T03:14:34.589Z,18.10
2018-11-07T03:15:07.699Z,17.85
2018-11-07T03:15:40.420Z,18.00
2018-11-07T03:16:13.073Z,18.10
2018-11-07T03:16:45.707Z,18.37
2018-11-07T03:17:18.354Z,18.30
2018-11-07T03:17:51.021Z,17.75
2018-11-07T03:18:23.713Z,18.00
2018-11-07T03:18:56.370Z,18.15
2018-11-07T03:19:29.022Z,18.40
2018-11-07T03:20:01.697Z,18.17
2018-11-07T03:20:34.366Z,18.12
2018-11-07T03:21:07.019Z,17.82
2018-11-07T03:21:39.676Z,17.82
2018-11-07T03:22:12.323Z,18.17
2018-11-07T03:22:44.991Z,18.00
2018-11-07T03:23:17.670Z,18.15
2018-11-07T03:23:50.344Z,18.30
2018-11-07T03:24:23.013Z,17.90
2018-11-07T03:24:55.763Z,18.00
2018-11-07T03:25:28.446Z,17.95
2018-11-07T03:26:01.120Z,17.77
2018-11-07T03:26:33.789Z,18.05
2018-11-07T03:27:06.477Z,18.02
2018-11-07T03:27:39.163Z,17.80
2018-11-07T03:28:11.841Z,18.00
2018-11-07T03:28:44.511Z,18.02
2018-11-07T03:29:17.173Z,18.27
2018-11-07T03:29:49.853Z,18.55
2018-11-07T03:30:22.507Z,18.20
2018-11-07T03:30:55.201Z,18.48
2018-11-07T03:31:27.879Z,18.37
2018-11-07T03:32:00.528Z,18.27
2018-11-07T03:32:33.199Z,18.75
2018-11-07T03:33:05.892Z,18.52
2018-11-07T03:33:38.545Z,18.62
2018-11-07T03:34:12.065Z,18.12
2018-11-07T03:34:44.711Z,18.48
2018-11-07T03:35:23.191Z,18.52
2018-11-07T03:35:55.841Z,18.65
2018-11-07T03:36:28.513Z,18.87
2018-11-07T03:37:01.192Z,18.15
2018-11-07T03:37:33.847Z,18.20
2018-11-07T03:38:06.482Z,18.15
2018-11-07T03:38:39.143Z,18.30
2018-11-07T03:39:11.847Z,18.42
2018-11-07T03:39:44.869Z,18.35
2018-11-07T03:40:17.499Z,18.17
2018-11-07T03:40:50.229Z,17.60
2018-11-07T03:41:22.865Z,18.20
2018-11-07T03:41:55.516Z,18.52
2018-11-07T03:42:28.143Z,18.10
2018-11-07T03:43:00.806Z,18.27
2018-11-07T03:43:33.454Z,18.73
2018-11-07T03:44:06.871Z,18.50
2018-11-07T03:44:39.561Z,18.30
2018-11-07T03:45:12.228Z,18.12
2018-11-07T03:45:50.513Z,18.50
2018-11-07T03:46:23.191Z,18.20
2018-11-07T03:46:55.848Z,18.40
2018-11-07T03:47:28.549Z,17.95
2018-11-07T03:48:01.257Z,18.50
2018-11-07T03:48:33.950Z,18.02
2018-11-07T03:49:06.921Z,18.07
2018-11-07T03:49:39.566Z,17.62
2018-11-07T03:50:12.259Z,17.82
2018-11-07T03:50:44.899Z,17.90
2018-11-07T03:51:17.604Z,17.65
2018-11-07T03:51:50.269Z,18.32
2018-11-07T03:52:22.961Z,17.82
2018-11-07T03:52:55.677Z,17.55
2018-11-07T03:53:28.303Z,18.17
2018-11-07T03:54:00.964Z,17.67
2018-11-07T03:54:33.620Z,17.55
2018-11-07T03:55:06.462Z,17.57
2018-11-07T03:55:39.119Z,17.67
2018-11-07T03:56:11.805Z,17.27
2018-11-07T03:56:44.464Z,18.07
2018-11-07T03:57:17.106Z,17.55
2018-11-07T03:57:49.760Z,17.15
2018-11-07T03:58:22.464Z,17.02
2018-11-07T03:58:55.533Z,17.17
2018-11-07T03:59:28.177Z,17.20
2018-11-07T04:00:00.846Z,17.23
2018-11-07T04:00:33.565Z,16.85
2018-11-07T04:01:06.238Z,17.65
2018-11-07T04:01:38.891Z,16.57
2018-11-07T04:02:11.551Z,17.52
2018-11-07T04:02:44.199Z,16.45
2018-11-07T04:03:16.889Z,17.25
2018-11-07T04:03:49.549Z,17.20
2018-11-07T04:04:22.210Z,16.87
2018-11-07T04:04:54.910Z,17.48
2018-11-07T04:05:27.582Z,16.90
2018-11-07T04:06:00.265Z,16.90
2018-11-07T04:06:32.930Z,16.73
2018-11-07T04:07:05.652Z,16.90
2018-11-07T04:07:38.992Z,17.00
2018-11-07T04:08:11.687Z,16.87
2018-11-07T04:08:44.335Z,16.52
2018-11-07T04:09:17.004Z,17.07
2018-11-07T04:09:49.660Z,16.80
2018-11-07T04:10:22.331Z,16.55
2018-11-07T04:10:54.963Z,16.80
2018-11-07T04:11:27.627Z,16.62
2018-11-07T04:12:00.334Z,16.80
2018-11-07T04:12:33.000Z,16.85
2018-11-07T04:13:05.978Z,16.80
2018-11-07T04:13:38.760Z,17.20
2018-11-07T04:14:11.442Z,16.40
2018-11-07T04:14:44.129Z,16.50
2018-11-07T04:15:16.792Z,16.52
2018-11-07T04:15:49.486Z,16.45
2018-11-07T04:16:22.138Z,17.05
2018-11-07T04:16:54.826Z,16.50
2018-11-07T04:17:27.512Z,16.35
2018-11-07T04:18:00.184Z,15.80
2018-11-07T04:18:32.820Z,16.75
2018-11-07T04:19:06.006Z,16.73
2018-11-07T04:19:38.663Z,16.55
2018-11-07T04:20:11.322Z,16.42
2018-11-07T04:20:43.967Z,16.20
2018-11-07T04:21:16.645Z,16.93
2018-11-07T04:21:49.304Z,16.32
2018-11-07T04:22:21.981Z,16.00
2018-11-07T04:22:54.668Z,16.17
2018-11-07T04:23:27.433Z,16.35
2018-11-07T04:24:01.959Z,16.07
2018-11-07T04:24:34.609Z,16.60
2018-11-07T04:25:07.790Z,16.02
2018-11-07T04:25:40.448Z,16.48
2018-11-07T04:26:13.094Z,16.23
2018-11-07T04:26:45.761Z,16.20
2018-11-07T04:27:18.491Z,16.07
2018-11-07T04:27:51.154Z,16.42
2018-11-07T04:28:23.811Z,15.60
2018-11-07T04:28:56.646Z,16.37
2018-11-07T04:29:29.314Z,15.95
2018-11-07T04:30:02.044Z,16.35
2018-11-07T04:30:34.724Z,16.25
2018-11-07T04:31:07.396Z,15.90
2018-11-07T04:31:40.072Z,16.00
2018-11-07T04:32:12.709Z,16.40
2018-11-07T04:32:45.380Z,16.02
2018-11-07T04:33:18.052Z,16.10
2018-11-07T04:33:50.818Z,16.12
2018-11-07T04:34:23.486Z,16.57
2018-11-07T04:34:56.149Z,16.32
2018-11-07T04:35:28.859Z,15.65
2018-11-07T04:36:01.540Z,16.52
2018-11-07T04:36:34.226Z,16.70
2018-11-07T04:37:06.896Z,16.02
2018-11-07T04:37:40.028Z,15.90
2018-11-07T04:38:12.685Z,15.90
2018-11-07T04:38:45.561Z,16.05
2018-11-07T04:39:18.362Z,15.15
2018-11-07T04:39:50.930Z,15.80
2018-11-07T04:40:23.610Z,15.83
2018-11-07T04:40:56.280Z,15.20
2018-11-07T04:41:28.943Z,15.80
2018-11-07T04:42:01.624Z,16.05
2018-11-07T04:42:34.288Z,16.30
2018-11-07T04:43:06.967Z,15.83
2018-11-07T04:43:39.658Z,15.98
2018-11-07T04:44:12.338Z,15.72
2018-11-07T04:44:44.992Z,15.90
2018-11-07T04:45:17.628Z,16.10
2018-11-07T04:45:50.374Z,15.83
2018-11-07T04:46:23.023Z,15.32
2018-11-07T04:46:55.688Z,16.20
2018-11-07T04:47:28.355Z,15.72
2018-11-07T04:48:01.018Z,15.98
2018-11-07T04:48:33.670Z,15.48
2018-11-07T04:49:06.336Z,15.55
2018-11-07T04:49:38.961Z,15.83
2018-11-07T04:50:11.849Z,15.70
2018-11-07T04:50:44.498Z,15.83
2018-11-07T04:51:17.144Z,16.17
2018-11-07T04:51:49.825Z,15.95
2018-11-07T04:52:22.508Z,15.80
2018-11-07T04:52:55.176Z,16.10
2018-11-07T04:53:27.844Z,15.53
2018-11-07T04:54:00.522Z,16.30
2018-11-07T04:54:33.180Z,15.90
2018-11-07T04:55:05.946Z,15.72
2018-11-07T04:55:38.590Z,16.12
2018-11-07T04:56:11.474Z,15.90
2018-11-07T04:56:44.125Z,16.25
2018-11-07T04:57:16.772Z,16.15
2018-11-07T04:57:49.432Z,16.20
2018-11-07T04:58:22.087Z,16.15
2018-11-07T04:58:54.754Z,16.25
2018-11-07T04:59:27.428Z,16.10
2018-11-07T05:00:00.118Z,16.60
2018-11-07T05:00:32.780Z,16.02
2018-11-07T05:01:05.999Z,16.40
2018-11-07T05:01:38.656Z,15.72
2018-11-07T05:02:11.340Z,16.12
2018-11-07T05:02:44.014Z,16.65
2018-11-07T05:03:16.686Z,16.37
2018-11-07T05:03:49.339Z,16.45
2018-11-07T05:04:21.997Z,16.55
2018-11-07T05:04:54.688Z,16.20
2018-11-07T05:05:27.376Z,16.12
2018-11-07T05:06:00.034Z,16.50
2018-11-07T05:06:32.989Z,17.00
2018-11-07T05:07:05.682Z,16.82
2018-11-07T05:07:38.354Z,16.25
2018-11-07T05:08:11.027Z,16.60
2018-11-07T05:08:43.778Z,16.40
2018-11-07T05:09:16.350Z,16.45
2018-11-07T05:09:49.014Z,16.97
2018-11-07T05:10:21.674Z,16.95
2018-11-07T05:10:54.326Z,16.50
2018-11-07T05:11:26.982Z,16.40
2018-11-07T05:11:59.666Z,16.90
2018-11-07T05:12:32.336Z,16.80
2018-11-07T05:13:05.010Z,16.60
2018-11-07T05:13:37.696Z,16.67
2018-11-07T05:14:10.352Z,16.67
2018-11-07T05:14:43.010Z,15.98
2018-11-07T05:15:15.685Z,16.52
2018-11-07T05:15:48.580Z,15.85
2018-11-07T05:16:21.584Z,16.37
2018-11-07T05:16:54.228Z,16.62
2018-11-07T05:17:26.928Z,16.20
2018-11-07T05:17:59.600Z,16.30
2018-11-07T05:18:32.314Z,16.60
2018-11-07T05:19:05.008Z,16.37
2018-11-07T05:19:37.701Z,16.55
2018-11-07T05:20:11.040Z,16.25
2018-11-07T05:20:43.771Z,16.53
2018-11-07T05:21:16.442Z,16.48
2018-11-07T05:21:49.256Z,16.10
2018-11-07T05:22:21.982Z,16.27
2018-11-07T05:22:54.698Z,16.48
2018-11-07T05:23:27.386Z,16.25
2018-11-07T05:24:00.091Z,16.45
2018-11-07T05:24:32.739Z,16.20
2018-11-07T05:25:06.207Z,16.12
2018-11-07T05:25:38.855Z,16.52
2018-11-07T05:26:11.532Z,16.73
2018-11-07T05:26:44.194Z,16.35
2018-11-07T05:27:16.840Z,16.70
2018-11-07T05:27:49.518Z,16.25
2018-11-07T05:28:22.154Z,16.10
2018-11-07T05:28:54.826Z,16.55
2018-11-07T05:29:27.485Z,16.50
2018-11-07T05:30:00.175Z,16.48
2018-11-07T05:30:32.822Z,16.32
2018-11-07T05:31:05.579Z,15.85
2018-11-07T05:31:38.258Z,16.67
2018-11-07T05:32:10.933Z,16.52
2018-11-07T05:32:43.608Z,16.05
2018-11-07T05:33:16.263Z,16.25
2018-11-07T05:33:48.930Z,16.05
2018-11-07T05:34:21.594Z,16.00
2018-11-07T05:34:54.315Z,16.48
2018-11-07T05:35:26.974Z,15.80
2018-11-07T05:35:59.666Z,15.85
2018-11-07T05:36:32.324Z,16.62
2018-11-07T05:37:05.112Z,16.00
2018-11-07T05:37:37.833Z,16.30
2018-11-07T05:38:10.516Z,15.85
2018-11-07T05:38:43.169Z,15.93
2018-11-07T05:39:15.807Z,16.52
2018-11-07T05:39:48.474Z,16.25
2018-11-07T05:40:21.153Z,16.00
2018-11-07T05:40:53.867Z,15.88
2018-11-07T05:41:26.533Z,16.27
2018-11-07T05:41:59.216Z,15.95
2018-11-07T05:42:31.878Z,16.05
2018-11-07T05:43:04.615Z,15.83
2018-11-07T05:43:37.278Z,15.95
2018-11-07T05:44:09.944Z,15.93
2018-11-07T05:44:42.607Z,16.30
2018-11-07T05:45:15.297Z,16.20
2018-11-07T05:45:47.980Z,15.60
2018-11-07T05:46:20.666Z,16.07
2018-11-07T05:46:53.335Z,15.90
2018-11-07T05:47:25.993Z,16.17
2018-11-07T05:47:58.719Z,15.60
2018-11-07T05:48:31.393Z,16.12
2018-11-07T05:49:04.143Z,15.63
2018-11-07T05:49:36.861Z,15.88
2018-11-07T05:50:10.121Z,15.80
2018-11-07T05:50:42.790Z,15.78
2018-11-07T05:51:15.427Z,15.72
2018-11-07T05:51:48.094Z,15.93
2018-11-07T05:52:20.767Z,15.45
2018-11-07T05:52:53.420Z,15.40
2018-11-07T05:53:26.078Z,15.90
2018-11-07T05:53:58.748Z,15.93
2018-11-07T05:54:31.398Z,15.63
2018-11-07T05:55:04.848Z,16.05
2018-11-07T05:55:37.502Z,16.40
2018-11-07T05:56:10.150Z,15.80
2018-11-07T05:56:42.803Z,15.70
2018-11-07T05:57:15.452Z,15.63
2018-11-07T05:57:48.143Z,16.00
2018-11-07T05:58:20.790Z,15.80
2018-11-07T05:58:53.443Z,15.88
2018-11-07T05:59:26.093Z,16.10
2018-11-07T05:59:58.754Z,16.17
2018-11-07T06:00:31.483Z,15.85
2018-11-07T06:01:04.394Z,15.65
2018-11-07T06:01:37.047Z,16.00
2018-11-07T06:02:09.717Z,16.02
2018-11-07T06:02:42.382Z,15.98
2018-11-07T06:03:15.030Z,15.83
2018-11-07T06:03:47.692Z,15.48
2018-11-07T06:04:20.376Z,16.20
2018-11-07T06:04:53.043Z,15.60
2018-11-07T06:05:25.798Z,15.93
2018-11-07T06:05:58.467Z,15.43
2018-11-07T06:06:31.149Z,15.60
2018-11-07T06:07:03.835Z,15.50
2018-11-07T06:07:37.057Z,15.10
2018-11-07T06:08:09.685Z,15.38
2018-11-07T06:08:42.340Z,15.63
2018-11-07T06:09:14.985Z,15.68
2018-11-07T06:09:47.701Z,15.48
2018-11-07T06:10:20.386Z,15.03
2018-11-07T06:10:53.031Z,15.58
2018-11-07T06:11:25.722Z,15.30
2018-11-07T06:11:58.368Z,15.15
2018-11-07T06:12:31.027Z,15.50
2018-11-07T06:13:03.791Z,15.32
2018-11-07T06:13:36.448Z,14.98
2018-11-07T06:14:09.095Z,15.08
2018-11-07T06:14:41.762Z,15.48
2018-11-07T06:15:14.425Z,15.85
2018-11-07T06:15:47.087Z,15.30
2018-11-07T06:16:19.834Z,15.00
2018-11-07T06:16:52.973Z,15.30
2018-11-07T06:17:25.619Z,15.30
2018-11-07T06:17:58.291Z,15.32
2018-11-07T06:18:30.955Z,15.45
2018-11-07T06:19:03.765Z,15.35
2018-11-07T06:19:36.459Z,15.35
2018-11-07T06:20:10.123Z,15.50
2018-11-07T06:20:42.819Z,15.25
2018-11-07T06:21:15.487Z,15.40
2018-11-07T06:21:48.161Z,15.40
2018-11-07T06:22:20.807Z,15.03
2018-11-07T06:22:53.475Z,15.48
2018-11-07T06:23:26.153Z,15.20
2018-11-07T06:23:58.827Z,15.30
2018-11-07T06:24:31.587Z,15.08
2018-11-07T06:25:04.589Z,15.35
2018-11-07T06:25:37.173Z,15.55
2018-11-07T06:26:09.879Z,15.00
2018-11-07T06:26:42.521Z,15.32
2018-11-07T06:27:15.195Z,15.10
2018-11-07T06:27:47.859Z,15.20
2018-11-07T06:28:20.529Z,15.53
2018-11-07T06:28:53.193Z,15.08
2018-11-07T06:29:25.855Z,15.58
2018-11-07T06:29:58.483Z,15.20
2018-11-07T06:30:31.193Z,15.55
2018-11-07T06:31:03.973Z,15.55
2018-11-07T06:31:36.631Z,15.70
2018-11-07T06:32:09.319Z,15.53
2018-11-07T06:32:42.174Z,15.50
2018-11-07T06:33:14.855Z,15.30
2018-11-07T06:33:47.541Z,15.30
2018-11-07T06:34:20.215Z,15.48
2018-11-07T06:34:52.881Z,15.50
2018-11-07T06:35:25.539Z,15.73
2018-11-07T06:35:58.209Z,15.45
2018-11-07T06:36:30.875Z,15.28
2018-11-07T06:37:03.679Z,15.45
2018-11-07T06:37:36.314Z,15.88
2018-11-07T06:38:08.967Z,15.83
2018-11-07T06:38:41.617Z,15.70
2018-11-07T06:39:14.275Z,15.43
2018-11-07T06:39:46.949Z,15.45
2018-11-07T06:40:19.615Z,15.75
2018-11-07T06:40:52.296Z,15.68
2018-11-07T06:41:24.957Z,15.05
2018-11-07T06:41:57.625Z,15.48
2018-11-07T06:42:30.289Z,15.80
2018-11-07T06:43:02.954Z,15.68
2018-11-07T06:43:35.615Z,15.80
2018-11-07T06:44:08.791Z,15.45
2018-11-07T06:44:41.460Z,15.65
2018-11-07T06:45:14.161Z,15.50
2018-11-07T06:45:46.824Z,15.53
2018-11-07T06:46:19.761Z,15.65
2018-11-07T06:46:52.439Z,15.58
2018-11-07T06:47:25.128Z,16.32
2018-11-07T06:47:57.788Z,15.23
2018-11-07T06:48:30.439Z,15.45
2018-11-07T06:49:03.107Z,15.43
2018-11-07T06:49:35.776Z,15.78
2018-11-07T06:50:11.988Z,15.68
2018-11-07T06:50:44.653Z,15.80
2018-11-07T06:51:17.312Z,15.38
2018-11-07T06:51:50.022Z,15.55
2018-11-07T06:52:22.701Z,15.68
2018-11-07T06:52:55.415Z,15.50
2018-11-07T06:53:28.084Z,15.32
2018-11-07T06:54:00.773Z,15.95
2018-11-07T06:54:33.457Z,15.58
2018-11-07T06:55:06.604Z,15.32
2018-11-07T06:55:39.283Z,15.53
2018-11-07T06:56:11.970Z,14.98
2018-11-07T06:56:44.666Z,14.90
2018-11-07T06:57:17.314Z,15.98
2018-11-07T06:57:49.983Z,15.13
2018-11-07T06:58:22.664Z,15.40
2018-11-07T06:58:55.368Z,15.43
2018-11-07T06:59:28.088Z,15.30
2018-11-07T07:00:00.759Z,15.20
2018-11-07T07:00:34.252Z,15.50
2018-11-07T07:01:06.934Z,15.28
2018-11-07T07:01:39.618Z,15.00
2018-11-07T07:02:12.300Z,15.38
2018-11-07T07:02:46.264Z,15.32